sensor_id;sensor_type;location;lat;lon;timestamp;P1;durP1;ratioP1;P2;durP2;ratioP2
32323;SDS011;25666;44.350;9.222;2023-04-24T00:00:00;11.27;;;6.20;;
32323;SDS011;25666;44.350;9.222;2023-04-24T00:02:26;11.48;;;5.15;;
32323;SDS011;25666;44.350;9.222;2023-04-24T00:04:51;9.32;;;5.45;;
32323;SDS011;25666;44.350;9.222;2023-04-24T00:07:17;8.88;;;5.25;;
32323;SDS011;25666;44.350;9.222;2023-04-24T00:09:43;8.60;;;5.38;;
32323;SDS011;25666;44.350;9.222;2023-04-24T00:12:09;7.65;;;5.65;;
32323;SDS011;25666;44.350;9.222;2023-04-24T00:14:35;11.07;;;5.30;;
32323;SDS011;25666;44.350;9.222;2023-04-24T00:17:01;9.63;;;5.78;;
32323;SDS011;25666;44.350;9.222;2023-04-24T00:19:27;10.95;;;6.00;;
32323;SDS011;25666;44.350;9.222;2023-04-24T00:21:54;7.80;;;4.80;;
32323;SDS011;25666;44.350;9.222;2023-04-24T00:24:19;6.75;;;4.93;;
32323;SDS011;25666;44.350;9.222;2023-04-24T00:26:45;7.30;;;4.55;;
32323;SDS011;25666;44.350;9.222;2023-04-24T00:29:11;9.77;;;5.57;;
32323;SDS011;25666;44.350;9.222;2023-04-24T00:31:36;7.43;;;4.85;;
32323;SDS011;25666;44.350;9.222;2023-04-24T00:34:02;15.20;;;6.72;;
32323;SDS011;25666;44.350;9.222;2023-04-24T00:36:29;7.72;;;5.50;;
32323;SDS011;25666;44.350;9.222;2023-04-24T00:38:55;9.02;;;6.18;;
32323;SDS011;25666;44.350;9.222;2023-04-24T00:41:22;12.63;;;6.75;;
32323;SDS011;25666;44.350;9.222;2023-04-24T00:43:49;8.80;;;5.90;;
32323;SDS011;25666;44.350;9.222;2023-04-24T00:46:15;9.98;;;6.00;;
32323;SDS011;25666;44.350;9.222;2023-04-24T00:48:41;13.52;;;5.20;;
32323;SDS011;25666;44.350;9.222;2023-04-24T00:51:08;16.00;;;6.82;;
32323;SDS011;25666;44.350;9.222;2023-04-24T00:53:33;8.57;;;5.22;;
32323;SDS011;25666;44.350;9.222;2023-04-24T00:55:59;10.25;;;5.20;;
32323;SDS011;25666;44.350;9.222;2023-04-24T00:58:25;9.75;;;5.10;;
32323;SDS011;25666;44.350;9.222;2023-04-24T01:00:51;9.77;;;5.40;;
32323;SDS011;25666;44.350;9.222;2023-04-24T01:03:19;8.50;;;4.32;;
32323;SDS011;25666;44.350;9.222;2023-04-24T01:05:46;11.57;;;4.85;;
32323;SDS011;25666;44.350;9.222;2023-04-24T01:08:13;11.88;;;5.70;;
32323;SDS011;25666;44.350;9.222;2023-04-24T01:10:40;7.40;;;5.05;;
32323;SDS011;25666;44.350;9.222;2023-04-24T01:13:06;8.88;;;5.47;;
32323;SDS011;25666;44.350;9.222;2023-04-24T01:15:33;16.88;;;5.57;;
32323;SDS011;25666;44.350;9.222;2023-04-24T01:17:58;9.90;;;6.13;;
32323;SDS011;25666;44.350;9.222;2023-04-24T01:20:24;12.43;;;5.80;;
32323;SDS011;25666;44.350;9.222;2023-04-24T01:22:51;8.80;;;5.70;;
32323;SDS011;25666;44.350;9.222;2023-04-24T01:25:18;12.40;;;5.60;;
32323;SDS011;25666;44.350;9.222;2023-04-24T01:27:43;7.38;;;5.10;;
32323;SDS011;25666;44.350;9.222;2023-04-24T01:30:10;6.85;;;4.70;;
32323;SDS011;25666;44.350;9.222;2023-04-24T01:32:36;6.47;;;4.60;;
32323;SDS011;25666;44.350;9.222;2023-04-24T01:35:03;8.60;;;4.88;;
32323;SDS011;25666;44.350;9.222;2023-04-24T01:37:29;11.48;;;5.95;;
32323;SDS011;25666;44.350;9.222;2023-04-24T01:39:55;10.75;;;5.47;;
32323;SDS011;25666;44.350;9.222;2023-04-24T01:42:21;14.55;;;5.50;;
32323;SDS011;25666;44.350;9.222;2023-04-24T01:44:46;12.48;;;6.30;;
32323;SDS011;25666;44.350;9.222;2023-04-24T01:47:12;17.63;;;6.20;;
32323;SDS011;25666;44.350;9.222;2023-04-24T01:49:38;16.05;;;7.35;;
32323;SDS011;25666;44.350;9.222;2023-04-24T01:52:04;15.85;;;7.05;;
32323;SDS011;25666;44.350;9.222;2023-04-24T01:54:30;11.32;;;6.45;;
32323;SDS011;25666;44.350;9.222;2023-04-24T01:56:55;13.93;;;6.78;;
32323;SDS011;25666;44.350;9.222;2023-04-24T01:59:21;13.23;;;6.07;;
32323;SDS011;25666;44.350;9.222;2023-04-24T02:01:48;14.77;;;5.70;;
32323;SDS011;25666;44.350;9.222;2023-04-24T02:04:13;19.90;;;6.60;;
32323;SDS011;25666;44.350;9.222;2023-04-24T02:06:40;11.07;;;6.43;;
32323;SDS011;25666;44.350;9.222;2023-04-24T02:09:05;20.42;;;6.40;;
32323;SDS011;25666;44.350;9.222;2023-04-24T02:11:31;14.90;;;6.35;;
32323;SDS011;25666;44.350;9.222;2023-04-24T02:13:57;11.88;;;5.68;;
32323;SDS011;25666;44.350;9.222;2023-04-24T02:16:22;10.07;;;5.38;;
32323;SDS011;25666;44.350;9.222;2023-04-24T02:18:49;16.58;;;6.43;;
32323;SDS011;25666;44.350;9.222;2023-04-24T02:21:16;19.23;;;5.63;;
32323;SDS011;25666;44.350;9.222;2023-04-24T02:23:41;12.27;;;6.82;;
32323;SDS011;25666;44.350;9.222;2023-04-24T02:26:07;15.55;;;6.70;;
32323;SDS011;25666;44.350;9.222;2023-04-24T02:28:32;16.75;;;6.72;;
32323;SDS011;25666;44.350;9.222;2023-04-24T02:30:58;27.15;;;7.90;;
32323;SDS011;25666;44.350;9.222;2023-04-24T02:33:23;26.90;;;9.05;;
32323;SDS011;25666;44.350;9.222;2023-04-24T02:35:49;18.65;;;7.05;;
32323;SDS011;25666;44.350;9.222;2023-04-24T02:38:14;20.85;;;6.78;;
32323;SDS011;25666;44.350;9.222;2023-04-24T02:40:41;32.75;;;7.00;;
32323;SDS011;25666;44.350;9.222;2023-04-24T02:43:09;19.48;;;4.93;;
32323;SDS011;25666;44.350;9.222;2023-04-24T02:45:34;17.75;;;5.07;;
32323;SDS011;25666;44.350;9.222;2023-04-24T02:48:00;18.63;;;4.47;;
32323;SDS011;25666;44.350;9.222;2023-04-24T02:50:25;7.60;;;3.28;;
32323;SDS011;25666;44.350;9.222;2023-04-24T02:52:51;10.52;;;3.15;;
32323;SDS011;25666;44.350;9.222;2023-04-24T02:55:16;21.20;;;4.20;;
32323;SDS011;25666;44.350;9.222;2023-04-24T02:57:42;13.18;;;3.15;;
32323;SDS011;25666;44.350;9.222;2023-04-24T03:00:07;11.63;;;3.25;;
32323;SDS011;25666;44.350;9.222;2023-04-24T03:02:34;12.77;;;3.25;;
32323;SDS011;25666;44.350;9.222;2023-04-24T03:04:59;15.80;;;3.38;;
32323;SDS011;25666;44.350;9.222;2023-04-24T03:07:25;12.00;;;3.17;;
32323;SDS011;25666;44.350;9.222;2023-04-24T03:09:50;20.33;;;3.80;;
32323;SDS011;25666;44.350;9.222;2023-04-24T03:12:16;10.82;;;3.33;;
32323;SDS011;25666;44.350;9.222;2023-04-24T03:14:43;15.80;;;3.50;;
32323;SDS011;25666;44.350;9.222;2023-04-24T03:17:08;23.70;;;4.03;;
32323;SDS011;25666;44.350;9.222;2023-04-24T03:19:34;24.08;;;5.10;;
32323;SDS011;25666;44.350;9.222;2023-04-24T03:22:04;12.90;;;3.00;;
32323;SDS011;25666;44.350;9.222;2023-04-24T03:24:30;18.92;;;3.38;;
32323;SDS011;25666;44.350;9.222;2023-04-24T03:26:56;14.88;;;4.03;;
32323;SDS011;25666;44.350;9.222;2023-04-24T03:29:54;23.30;;;3.85;;
32323;SDS011;25666;44.350;9.222;2023-04-24T03:32:24;20.30;;;3.13;;
32323;SDS011;25666;44.350;9.222;2023-04-24T03:34:50;19.65;;;3.83;;
32323;SDS011;25666;44.350;9.222;2023-04-24T03:37:16;12.32;;;4.25;;
32323;SDS011;25666;44.350;9.222;2023-04-24T03:42:15;11.70;;;3.72;;
32323;SDS011;25666;44.350;9.222;2023-04-24T03:44:49;16.55;;;3.78;;
32323;SDS011;25666;44.350;9.222;2023-04-24T03:47:15;17.52;;;4.55;;
32323;SDS011;25666;44.350;9.222;2023-04-24T03:49:41;19.05;;;4.20;;
32323;SDS011;25666;44.350;9.222;2023-04-24T03:52:07;23.38;;;4.03;;
32323;SDS011;25666;44.350;9.222;2023-04-24T03:54:33;16.20;;;3.58;;
32323;SDS011;25666;44.350;9.222;2023-04-24T03:56:59;11.68;;;3.58;;
32323;SDS011;25666;44.350;9.222;2023-04-24T03:59:26;13.82;;;4.32;;
32323;SDS011;25666;44.350;9.222;2023-04-24T04:02:07;14.43;;;3.58;;
32323;SDS011;25666;44.350;9.222;2023-04-24T04:04:33;14.68;;;3.72;;
32323;SDS011;25666;44.350;9.222;2023-04-24T04:06:59;15.38;;;3.25;;
32323;SDS011;25666;44.350;9.222;2023-04-24T04:09:28;13.65;;;3.63;;
32323;SDS011;25666;44.350;9.222;2023-04-24T04:11:54;10.75;;;3.17;;
32323;SDS011;25666;44.350;9.222;2023-04-24T04:14:20;14.90;;;5.10;;
32323;SDS011;25666;44.350;9.222;2023-04-24T04:16:47;14.48;;;4.05;;
32323;SDS011;25666;44.350;9.222;2023-04-24T04:19:13;20.13;;;3.78;;
32323;SDS011;25666;44.350;9.222;2023-04-24T04:21:38;14.98;;;3.33;;
32323;SDS011;25666;44.350;9.222;2023-04-24T04:24:11;19.17;;;3.55;;
32323;SDS011;25666;44.350;9.222;2023-04-24T04:26:41;13.55;;;3.47;;
32323;SDS011;25666;44.350;9.222;2023-04-24T04:29:11;7.60;;;2.88;;
32323;SDS011;25666;44.350;9.222;2023-04-24T04:31:41;12.00;;;3.58;;
32323;SDS011;25666;44.350;9.222;2023-04-24T04:34:10;16.15;;;3.30;;
32323;SDS011;25666;44.350;9.222;2023-04-24T04:36:37;9.38;;;3.30;;
32323;SDS011;25666;44.350;9.222;2023-04-24T04:39:31;16.10;;;3.25;;
32323;SDS011;25666;44.350;9.222;2023-04-24T04:42:00;13.45;;;3.58;;
32323;SDS011;25666;44.350;9.222;2023-04-24T04:44:31;17.67;;;3.45;;
32323;SDS011;25666;44.350;9.222;2023-04-24T04:46:58;7.35;;;2.67;;
32323;SDS011;25666;44.350;9.222;2023-04-24T04:49:28;7.35;;;2.92;;
32323;SDS011;25666;44.350;9.222;2023-04-24T04:51:54;6.63;;;2.97;;
32323;SDS011;25666;44.350;9.222;2023-04-24T04:54:20;12.95;;;3.20;;
32323;SDS011;25666;44.350;9.222;2023-04-24T04:56:46;12.63;;;3.75;;
32323;SDS011;25666;44.350;9.222;2023-04-24T04:59:11;13.18;;;3.55;;
32323;SDS011;25666;44.350;9.222;2023-04-24T05:01:38;14.82;;;3.55;;
32323;SDS011;25666;44.350;9.222;2023-04-24T05:04:05;9.25;;;3.22;;
32323;SDS011;25666;44.350;9.222;2023-04-24T05:06:31;18.00;;;3.55;;
32323;SDS011;25666;44.350;9.222;2023-04-24T05:08:57;14.70;;;3.17;;
32323;SDS011;25666;44.350;9.222;2023-04-24T05:11:35;16.25;;;3.28;;
32323;SDS011;25666;44.350;9.222;2023-04-24T05:14:01;14.43;;;2.58;;
32323;SDS011;25666;44.350;9.222;2023-04-24T05:16:45;15.38;;;3.25;;
32323;SDS011;25666;44.350;9.222;2023-04-24T05:19:12;11.80;;;3.85;;
32323;SDS011;25666;44.350;9.222;2023-04-24T05:21:40;13.65;;;2.95;;
32323;SDS011;25666;44.350;9.222;2023-04-24T05:24:06;14.93;;;4.20;;
32323;SDS011;25666;44.350;9.222;2023-04-24T05:26:48;16.53;;;3.67;;
32323;SDS011;25666;44.350;9.222;2023-04-24T05:29:16;15.50;;;5.20;;
32323;SDS011;25666;44.350;9.222;2023-04-24T05:31:44;16.67;;;4.00;;
32323;SDS011;25666;44.350;9.222;2023-04-24T05:34:10;17.85;;;2.92;;
32323;SDS011;25666;44.350;9.222;2023-04-24T05:36:39;12.63;;;3.20;;
32323;SDS011;25666;44.350;9.222;2023-04-24T05:39:04;8.82;;;2.88;;
32323;SDS011;25666;44.350;9.222;2023-04-24T05:41:30;8.55;;;2.85;;
32323;SDS011;25666;44.350;9.222;2023-04-24T05:43:55;9.35;;;3.15;;
32323;SDS011;25666;44.350;9.222;2023-04-24T05:46:21;11.82;;;3.55;;
32323;SDS011;25666;44.350;9.222;2023-04-24T05:48:46;10.10;;;2.85;;
32323;SDS011;25666;44.350;9.222;2023-04-24T05:51:12;9.18;;;3.38;;
32323;SDS011;25666;44.350;9.222;2023-04-24T05:53:38;5.53;;;2.78;;
32323;SDS011;25666;44.350;9.222;2023-04-24T05:56:04;9.48;;;2.42;;
32323;SDS011;25666;44.350;9.222;2023-04-24T05:58:30;10.25;;;3.80;;
32323;SDS011;25666;44.350;9.222;2023-04-24T06:00:56;11.48;;;3.30;;
32323;SDS011;25666;44.350;9.222;2023-04-24T06:03:23;8.13;;;2.95;;
32323;SDS011;25666;44.350;9.222;2023-04-24T06:05:50;8.98;;;2.83;;
32323;SDS011;25666;44.350;9.222;2023-04-24T06:08:16;10.50;;;2.53;;
32323;SDS011;25666;44.350;9.222;2023-04-24T06:10:43;10.73;;;2.50;;
32323;SDS011;25666;44.350;9.222;2023-04-24T06:13:09;10.13;;;2.30;;
32323;SDS011;25666;44.350;9.222;2023-04-24T06:15:37;6.43;;;2.42;;
32323;SDS011;25666;44.350;9.222;2023-04-24T06:18:06;9.93;;;3.67;;
32323;SDS011;25666;44.350;9.222;2023-04-24T06:20:32;12.02;;;3.38;;
32323;SDS011;25666;44.350;9.222;2023-04-24T06:22:57;13.43;;;3.63;;
32323;SDS011;25666;44.350;9.222;2023-04-24T06:25:26;7.53;;;3.33;;
32323;SDS011;25666;44.350;9.222;2023-04-24T06:27:52;7.05;;;3.15;;
32323;SDS011;25666;44.350;9.222;2023-04-24T06:30:17;7.15;;;2.70;;
32323;SDS011;25666;44.350;9.222;2023-04-24T06:32:43;6.22;;;2.40;;
32323;SDS011;25666;44.350;9.222;2023-04-24T06:35:08;8.90;;;2.90;;
32323;SDS011;25666;44.350;9.222;2023-04-24T06:37:35;6.35;;;2.63;;
32323;SDS011;25666;44.350;9.222;2023-04-24T06:40:01;6.60;;;3.13;;
32323;SDS011;25666;44.350;9.222;2023-04-24T06:42:26;9.95;;;4.05;;
32323;SDS011;25666;44.350;9.222;2023-04-24T06:44:52;12.90;;;3.47;;
32323;SDS011;25666;44.350;9.222;2023-04-24T06:47:18;7.82;;;3.28;;
32323;SDS011;25666;44.350;9.222;2023-04-24T06:49:43;14.77;;;3.40;;
32323;SDS011;25666;44.350;9.222;2023-04-24T06:52:09;10.13;;;2.83;;
32323;SDS011;25666;44.350;9.222;2023-04-24T06:54:35;10.35;;;3.20;;
32323;SDS011;25666;44.350;9.222;2023-04-24T06:57:00;16.25;;;2.85;;
32323;SDS011;25666;44.350;9.222;2023-04-24T06:59:27;7.90;;;3.03;;
32323;SDS011;25666;44.350;9.222;2023-04-24T07:01:53;9.07;;;3.72;;
32323;SDS011;25666;44.350;9.222;2023-04-24T07:04:19;14.05;;;3.50;;
32323;SDS011;25666;44.350;9.222;2023-04-24T07:06:45;12.68;;;3.15;;
32323;SDS011;25666;44.350;9.222;2023-04-24T07:09:11;7.57;;;3.15;;
32323;SDS011;25666;44.350;9.222;2023-04-24T07:11:38;12.18;;;3.80;;
32323;SDS011;25666;44.350;9.222;2023-04-24T07:14:05;16.70;;;3.40;;
32323;SDS011;25666;44.350;9.222;2023-04-24T07:16:31;11.20;;;3.28;;
32323;SDS011;25666;44.350;9.222;2023-04-24T07:18:57;7.30;;;3.25;;
32323;SDS011;25666;44.350;9.222;2023-04-24T07:21:22;12.68;;;3.72;;
32323;SDS011;25666;44.350;9.222;2023-04-24T07:23:47;9.43;;;3.60;;
32323;SDS011;25666;44.350;9.222;2023-04-24T07:26:13;14.15;;;3.80;;
32323;SDS011;25666;44.350;9.222;2023-04-24T07:28:40;16.50;;;4.03;;
32323;SDS011;25666;44.350;9.222;2023-04-24T07:31:05;23.50;;;4.70;;
32323;SDS011;25666;44.350;9.222;2023-04-24T07:33:31;11.52;;;3.22;;
32323;SDS011;25666;44.350;9.222;2023-04-24T07:35:57;10.63;;;3.55;;
32323;SDS011;25666;44.350;9.222;2023-04-24T07:38:22;13.30;;;3.75;;
32323;SDS011;25666;44.350;9.222;2023-04-24T07:40:48;12.98;;;3.80;;
32323;SDS011;25666;44.350;9.222;2023-04-24T07:43:14;10.73;;;4.65;;
32323;SDS011;25666;44.350;9.222;2023-04-24T07:45:39;13.80;;;4.40;;
32323;SDS011;25666;44.350;9.222;2023-04-24T07:48:05;19.13;;;4.20;;
32323;SDS011;25666;44.350;9.222;2023-04-24T07:50:31;13.63;;;4.65;;
32323;SDS011;25666;44.350;9.222;2023-04-24T07:52:57;12.27;;;4.30;;
32323;SDS011;25666;44.350;9.222;2023-04-24T07:55:22;17.95;;;3.67;;
32323;SDS011;25666;44.350;9.222;2023-04-24T07:57:48;11.95;;;3.90;;
32323;SDS011;25666;44.350;9.222;2023-04-24T08:00:13;13.68;;;4.10;;
32323;SDS011;25666;44.350;9.222;2023-04-24T08:02:39;15.93;;;3.25;;
32323;SDS011;25666;44.350;9.222;2023-04-24T08:05:05;14.45;;;3.50;;
32323;SDS011;25666;44.350;9.222;2023-04-24T08:07:31;11.07;;;3.17;;
32323;SDS011;25666;44.350;9.222;2023-04-24T08:09:57;8.27;;;3.28;;
32323;SDS011;25666;44.350;9.222;2023-04-24T08:12:24;6.72;;;2.33;;
32323;SDS011;25666;44.350;9.222;2023-04-24T08:14:50;14.95;;;3.35;;
32323;SDS011;25666;44.350;9.222;2023-04-24T08:17:16;7.57;;;3.08;;
32323;SDS011;25666;44.350;9.222;2023-04-24T08:19:42;12.45;;;3.45;;
32323;SDS011;25666;44.350;9.222;2023-04-24T08:22:13;10.55;;;3.35;;
32323;SDS011;25666;44.350;9.222;2023-04-24T08:24:41;6.70;;;3.15;;
32323;SDS011;25666;44.350;9.222;2023-04-24T08:27:06;14.35;;;3.75;;
32323;SDS011;25666;44.350;9.222;2023-04-24T08:29:33;10.85;;;3.63;;
32323;SDS011;25666;44.350;9.222;2023-04-24T08:31:59;9.68;;;3.13;;
32323;SDS011;25666;44.350;9.222;2023-04-24T08:34:24;17.77;;;3.53;;
32323;SDS011;25666;44.350;9.222;2023-04-24T08:36:49;12.02;;;3.05;;
32323;SDS011;25666;44.350;9.222;2023-04-24T08:39:15;15.23;;;3.10;;
32323;SDS011;25666;44.350;9.222;2023-04-24T08:41:42;8.23;;;2.78;;
32323;SDS011;25666;44.350;9.222;2023-04-24T08:44:09;8.77;;;3.45;;
32323;SDS011;25666;44.350;9.222;2023-04-24T08:46:35;14.45;;;3.25;;
32323;SDS011;25666;44.350;9.222;2023-04-24T08:49:01;12.60;;;2.70;;
32323;SDS011;25666;44.350;9.222;2023-04-24T08:51:27;9.95;;;2.15;;
32323;SDS011;25666;44.350;9.222;2023-04-24T08:53:55;14.10;;;3.08;;
32323;SDS011;25666;44.350;9.222;2023-04-24T08:56:22;15.48;;;3.63;;
32323;SDS011;25666;44.350;9.222;2023-04-24T08:58:50;9.13;;;2.88;;
32323;SDS011;25666;44.350;9.222;2023-04-24T09:01:16;15.40;;;3.20;;
32323;SDS011;25666;44.350;9.222;2023-04-24T09:03:45;8.45;;;1.88;;
32323;SDS011;25666;44.350;9.222;2023-04-24T09:06:13;24.25;;;4.03;;
32323;SDS011;25666;44.350;9.222;2023-04-24T09:08:41;21.17;;;4.03;;
32323;SDS011;25666;44.350;9.222;2023-04-24T09:11:08;15.07;;;2.55;;
32323;SDS011;25666;44.350;9.222;2023-04-24T09:13:35;9.48;;;2.50;;
32323;SDS011;25666;44.350;9.222;2023-04-24T09:16:00;15.90;;;3.75;;
32323;SDS011;25666;44.350;9.222;2023-04-24T09:18:26;19.92;;;3.22;;
32323;SDS011;25666;44.350;9.222;2023-04-24T09:21:06;13.57;;;4.35;;
32323;SDS011;25666;44.350;9.222;2023-04-24T09:23:33;14.27;;;3.22;;
32323;SDS011;25666;44.350;9.222;2023-04-24T09:25:59;16.30;;;2.90;;
32323;SDS011;25666;44.350;9.222;2023-04-24T09:28:27;21.40;;;2.90;;
32323;SDS011;25666;44.350;9.222;2023-04-24T09:33:56;13.15;;;3.55;;
32323;SDS011;25666;44.350;9.222;2023-04-24T09:36:31;8.88;;;2.95;;
32323;SDS011;25666;44.350;9.222;2023-04-24T09:38:59;12.77;;;2.95;;
32323;SDS011;25666;44.350;9.222;2023-04-24T09:41:26;12.60;;;2.80;;
32323;SDS011;25666;44.350;9.222;2023-04-24T09:43:53;19.38;;;3.55;;
32323;SDS011;25666;44.350;9.222;2023-04-24T09:46:20;14.73;;;2.65;;
32323;SDS011;25666;44.350;9.222;2023-04-24T09:48:47;16.38;;;2.75;;
32323;SDS011;25666;44.350;9.222;2023-04-24T09:51:13;13.70;;;3.25;;
32323;SDS011;25666;44.350;9.222;2023-04-24T09:53:44;11.65;;;2.78;;
32323;SDS011;25666;44.350;9.222;2023-04-24T09:56:14;18.38;;;3.88;;
32323;SDS011;25666;44.350;9.222;2023-04-24T09:58:40;15.38;;;3.25;;
32323;SDS011;25666;44.350;9.222;2023-04-24T10:01:05;15.30;;;3.85;;
32323;SDS011;25666;44.350;9.222;2023-04-24T10:03:31;18.73;;;3.03;;
32323;SDS011;25666;44.350;9.222;2023-04-24T10:06:02;17.70;;;3.35;;
32323;SDS011;25666;44.350;9.222;2023-04-24T10:08:34;13.10;;;2.58;;
32323;SDS011;25666;44.350;9.222;2023-04-24T10:11:01;18.42;;;2.83;;
32323;SDS011;25666;44.350;9.222;2023-04-24T10:13:27;17.58;;;2.55;;
32323;SDS011;25666;44.350;9.222;2023-04-24T10:15:53;18.70;;;4.60;;
32323;SDS011;25666;44.350;9.222;2023-04-24T10:18:20;19.67;;;4.43;;
32323;SDS011;25666;44.350;9.222;2023-04-24T10:20:47;12.85;;;2.95;;
32323;SDS011;25666;44.350;9.222;2023-04-24T10:23:12;14.18;;;2.90;;
32323;SDS011;25666;44.350;9.222;2023-04-24T10:25:38;11.73;;;2.35;;
32323;SDS011;25666;44.350;9.222;2023-04-24T10:28:10;8.63;;;2.20;;
32323;SDS011;25666;44.350;9.222;2023-04-24T10:30:47;9.98;;;3.03;;
32323;SDS011;25666;44.350;9.222;2023-04-24T10:33:14;24.15;;;3.15;;
32323;SDS011;25666;44.350;9.222;2023-04-24T10:35:44;16.08;;;2.97;;
32323;SDS011;25666;44.350;9.222;2023-04-24T10:38:14;17.52;;;5.07;;
32323;SDS011;25666;44.350;9.222;2023-04-24T10:40:43;11.73;;;2.15;;
32323;SDS011;25666;44.350;9.222;2023-04-24T10:43:09;16.90;;;2.97;;
32323;SDS011;25666;44.350;9.222;2023-04-24T10:45:36;14.60;;;2.67;;
32323;SDS011;25666;44.350;9.222;2023-04-24T10:48:06;19.42;;;3.45;;
32323;SDS011;25666;44.350;9.222;2023-04-24T10:50:43;24.55;;;3.88;;
32323;SDS011;25666;44.350;9.222;2023-04-24T10:53:15;17.23;;;3.17;;
32323;SDS011;25666;44.350;9.222;2023-04-24T10:55:43;21.88;;;3.72;;
32323;SDS011;25666;44.350;9.222;2023-04-24T10:58:13;21.88;;;3.38;;
32323;SDS011;25666;44.350;9.222;2023-04-24T11:00:41;18.80;;;3.08;;
32323;SDS011;25666;44.350;9.222;2023-04-24T11:03:29;17.67;;;2.95;;
32323;SDS011;25666;44.350;9.222;2023-04-24T11:08:31;17.27;;;3.25;;
32323;SDS011;25666;44.350;9.222;2023-04-24T11:11:08;23.55;;;3.13;;
32323;SDS011;25666;44.350;9.222;2023-04-24T11:16:26;26.27;;;4.07;;
32323;SDS011;25666;44.350;9.222;2023-04-24T11:19:00;11.10;;;2.97;;
32323;SDS011;25666;44.350;9.222;2023-04-24T11:21:31;9.25;;;3.28;;
32323;SDS011;25666;44.350;9.222;2023-04-24T11:26:55;17.13;;;2.95;;
32323;SDS011;25666;44.350;9.222;2023-04-24T11:29:24;16.95;;;3.50;;
32323;SDS011;25666;44.350;9.222;2023-04-24T11:34:51;18.00;;;4.10;;
32323;SDS011;25666;44.350;9.222;2023-04-24T11:37:41;15.40;;;3.47;;
32323;SDS011;25666;44.350;9.222;2023-04-24T11:40:10;10.82;;;2.83;;
32323;SDS011;25666;44.350;9.222;2023-04-24T11:42:39;17.77;;;3.08;;
32323;SDS011;25666;44.350;9.222;2023-04-24T11:45:15;13.40;;;2.95;;
32323;SDS011;25666;44.350;9.222;2023-04-24T11:47:48;12.43;;;3.03;;
32323;SDS011;25666;44.350;9.222;2023-04-24T11:50:15;14.93;;;2.78;;
32323;SDS011;25666;44.350;9.222;2023-04-24T11:52:43;9.15;;;2.65;;
32323;SDS011;25666;44.350;9.222;2023-04-24T11:57:39;14.40;;;3.35;;
32323;SDS011;25666;44.350;9.222;2023-04-24T12:00:14;15.57;;;3.10;;
32323;SDS011;25666;44.350;9.222;2023-04-24T12:02:44;17.90;;;3.10;;
32323;SDS011;25666;44.350;9.222;2023-04-24T12:05:19;11.85;;;3.38;;
32323;SDS011;25666;44.350;9.222;2023-04-24T12:07:46;15.93;;;2.53;;
32323;SDS011;25666;44.350;9.222;2023-04-24T12:10:11;13.57;;;2.95;;
32323;SDS011;25666;44.350;9.222;2023-04-24T12:12:37;20.20;;;3.95;;
32323;SDS011;25666;44.350;9.222;2023-04-24T12:15:06;11.05;;;2.42;;
32323;SDS011;25666;44.350;9.222;2023-04-24T12:17:33;10.52;;;2.80;;
32323;SDS011;25666;44.350;9.222;2023-04-24T12:20:00;19.33;;;3.67;;
32323;SDS011;25666;44.350;9.222;2023-04-24T12:22:27;16.08;;;2.80;;
32323;SDS011;25666;44.350;9.222;2023-04-24T12:24:57;12.45;;;2.50;;
32323;SDS011;25666;44.350;9.222;2023-04-24T12:27:30;13.55;;;3.15;;
32323;SDS011;25666;44.350;9.222;2023-04-24T12:29:58;9.45;;;2.15;;
32323;SDS011;25666;44.350;9.222;2023-04-24T12:32:24;13.63;;;2.28;;
32323;SDS011;25666;44.350;9.222;2023-04-24T12:34:50;15.05;;;3.30;;
32323;SDS011;25666;44.350;9.222;2023-04-24T12:37:17;10.55;;;2.78;;
32323;SDS011;25666;44.350;9.222;2023-04-24T12:42:28;8.27;;;2.38;;
32323;SDS011;25666;44.350;9.222;2023-04-24T12:44:58;7.47;;;2.25;;
32323;SDS011;25666;44.350;9.222;2023-04-24T12:47:26;6.07;;;1.98;;
32323;SDS011;25666;44.350;9.222;2023-04-24T12:49:53;4.28;;;1.70;;
32323;SDS011;25666;44.350;9.222;2023-04-24T12:52:23;23.95;;;3.90;;
32323;SDS011;25666;44.350;9.222;2023-04-24T12:54:52;8.40;;;1.63;;
32323;SDS011;25666;44.350;9.222;2023-04-24T12:57:18;8.15;;;2.38;;
32323;SDS011;25666;44.350;9.222;2023-04-24T12:59:44;11.38;;;2.35;;
32323;SDS011;25666;44.350;9.222;2023-04-24T13:02:10;23.15;;;3.00;;
32323;SDS011;25666;44.350;9.222;2023-04-24T13:04:36;21.42;;;3.25;;
32323;SDS011;25666;44.350;9.222;2023-04-24T13:07:02;16.67;;;3.58;;
32323;SDS011;25666;44.350;9.222;2023-04-24T13:09:28;11.68;;;2.45;;
32323;SDS011;25666;44.350;9.222;2023-04-24T13:11:54;13.00;;;3.50;;
32323;SDS011;25666;44.350;9.222;2023-04-24T13:14:21;11.95;;;2.40;;
32323;SDS011;25666;44.350;9.222;2023-04-24T13:16:47;9.55;;;2.65;;
32323;SDS011;25666;44.350;9.222;2023-04-24T13:19:13;23.70;;;2.67;;
32323;SDS011;25666;44.350;9.222;2023-04-24T13:21:38;17.35;;;3.15;;
32323;SDS011;25666;44.350;9.222;2023-04-24T13:24:04;12.18;;;2.95;;
32323;SDS011;25666;44.350;9.222;2023-04-24T13:26:30;15.43;;;2.63;;
32323;SDS011;25666;44.350;9.222;2023-04-24T13:28:56;33.28;;;2.95;;
32323;SDS011;25666;44.350;9.222;2023-04-24T13:31:21;10.13;;;2.55;;
32323;SDS011;25666;44.350;9.222;2023-04-24T13:33:47;15.95;;;2.55;;
32323;SDS011;25666;44.350;9.222;2023-04-24T13:36:13;12.98;;;2.38;;
32323;SDS011;25666;44.350;9.222;2023-04-24T13:38:38;13.00;;;2.60;;
32323;SDS011;25666;44.350;9.222;2023-04-24T13:41:04;10.82;;;2.97;;
32323;SDS011;25666;44.350;9.222;2023-04-24T13:43:29;14.20;;;2.53;;
32323;SDS011;25666;44.350;9.222;2023-04-24T13:45:55;12.82;;;2.50;;
32323;SDS011;25666;44.350;9.222;2023-04-24T13:48:20;9.43;;;1.88;;
32323;SDS011;25666;44.350;9.222;2023-04-24T13:50:46;10.05;;;2.40;;
32323;SDS011;25666;44.350;9.222;2023-04-24T13:53:13;11.88;;;2.40;;
32323;SDS011;25666;44.350;9.222;2023-04-24T13:55:39;17.13;;;3.45;;
32323;SDS011;25666;44.350;9.222;2023-04-24T13:58:05;8.68;;;2.55;;
32323;SDS011;25666;44.350;9.222;2023-04-24T14:00:31;16.83;;;3.60;;
32323;SDS011;25666;44.350;9.222;2023-04-24T14:02:57;19.77;;;4.32;;
32323;SDS011;25666;44.350;9.222;2023-04-24T14:05:22;10.00;;;2.78;;
32323;SDS011;25666;44.350;9.222;2023-04-24T14:07:48;12.13;;;2.70;;
32323;SDS011;25666;44.350;9.222;2023-04-24T14:10:13;11.60;;;2.83;;
32323;SDS011;25666;44.350;9.222;2023-04-24T14:12:39;12.63;;;3.70;;
32323;SDS011;25666;44.350;9.222;2023-04-24T14:15:05;12.48;;;4.15;;
32323;SDS011;25666;44.350;9.222;2023-04-24T14:17:31;18.15;;;3.72;;
32323;SDS011;25666;44.350;9.222;2023-04-24T14:19:56;14.05;;;2.80;;
32323;SDS011;25666;44.350;9.222;2023-04-24T14:22:24;26.92;;;3.40;;
32323;SDS011;25666;44.350;9.222;2023-04-24T14:24:50;23.27;;;2.95;;
32323;SDS011;25666;44.350;9.222;2023-04-24T14:27:15;12.60;;;2.85;;
32323;SDS011;25666;44.350;9.222;2023-04-24T14:29:41;7.32;;;2.33;;
32323;SDS011;25666;44.350;9.222;2023-04-24T14:32:06;16.08;;;3.65;;
32323;SDS011;25666;44.350;9.222;2023-04-24T14:34:34;11.60;;;2.83;;
32323;SDS011;25666;44.350;9.222;2023-04-24T14:36:59;15.93;;;3.65;;
32323;SDS011;25666;44.350;9.222;2023-04-24T14:39:25;14.35;;;2.70;;
32323;SDS011;25666;44.350;9.222;2023-04-24T14:41:50;14.82;;;3.55;;
32323;SDS011;25666;44.350;9.222;2023-04-24T14:44:16;17.85;;;4.03;;
32323;SDS011;25666;44.350;9.222;2023-04-24T14:46:42;11.57;;;3.28;;
32323;SDS011;25666;44.350;9.222;2023-04-24T14:49:08;15.52;;;2.88;;
32323;SDS011;25666;44.350;9.222;2023-04-24T14:51:35;15.55;;;3.50;;
32323;SDS011;25666;44.350;9.222;2023-04-24T14:54:01;12.38;;;2.83;;
32323;SDS011;25666;44.350;9.222;2023-04-24T14:56:26;11.25;;;3.00;;
32323;SDS011;25666;44.350;9.222;2023-04-24T14:58:52;12.40;;;3.42;;